createdAt,value
2018-01-21T00:00:25.666Z,98885.16
2018-01-21T00:01:31.390Z,98890.05
2018-01-21T00:02:37.135Z,98887.03
2018-01-21T00:03:42.873Z,98892.24
2018-01-21T00:04:48.614Z,98887.94
2018-01-21T00:05:54.386Z,98895.14
2018-01-21T00:07:00.116Z,98894.66
2018-01-21T00:08:05.840Z,98895.50
2018-01-21T00:09:11.568Z,98895.73
2018-01-21T00:10:17.312Z,98893.56
2018-01-21T00:11:23.084Z,98894.77
2018-01-21T00:12:28.818Z,98895.62
2018-01-21T00:13:34.578Z,98901.94
2018-01-21T00:14:40.324Z,98894.89
2018-01-21T00:15:46.053Z,98896.28
2018-01-21T00:16:51.652Z,98898.23
2018-01-21T00:17:57.409Z,98900.86
2018-01-21T00:19:03.155Z,98898.20
2018-01-21T00:20:08.903Z,98901.91
2018-01-21T00:21:14.635Z,98900.95
2018-01-21T00:22:47.105Z,98904.95
2018-01-21T00:23:52.836Z,98908.23
2018-01-21T00:24:58.563Z,98912.06
2018-01-21T00:26:05.072Z,98905.05
2018-01-21T00:27:10.835Z,98913.96
2018-01-21T00:28:16.613Z,98912.67
2018-01-21T00:29:22.383Z,98915.08
2018-01-21T00:30:28.126Z,98919.78
2018-01-21T00:31:33.872Z,98919.90
2018-01-21T00:32:39.600Z,98917.67
2018-01-21T00:33:45.363Z,98911.16
2018-01-21T00:34:51.108Z,98912.22
2018-01-21T00:35:56.849Z,98907.58
2018-01-21T00:37:02.594Z,98905.86
2018-01-21T00:38:09.132Z,98909.56
2018-01-21T00:39:14.950Z,98911.48
2018-01-21T00:40:20.703Z,98909.26
2018-01-21T00:41:26.428Z,98906.36
2018-01-21T00:42:32.187Z,98903.92
2018-01-21T00:43:37.924Z,98903.98
2018-01-21T00:44:43.677Z,98905.27
2018-01-21T00:45:49.395Z,98914.31
2018-01-21T00:46:55.160Z,98906.59
2018-01-21T00:48:00.896Z,98907.95
2018-01-21T00:49:06.639Z,98913.98
2018-01-21T00:50:12.438Z,98918.20
2018-01-21T00:51:18.947Z,98918.61
2018-01-21T00:52:24.837Z,98916.45
2018-01-21T00:53:31.352Z,98920.52
2018-01-21T00:54:37.084Z,98922.88
2018-01-21T00:55:42.857Z,98926.94
2018-01-21T00:56:48.611Z,98927.84
2018-01-21T00:57:54.354Z,98933.47
2018-01-21T00:59:00.152Z,98931.30
2018-01-21T01:00:05.242Z,98939.02
2018-01-21T01:01:11.761Z,98933.89
2018-01-21T01:02:17.510Z,98940.34
2018-01-21T01:03:23.258Z,98942.48
2018-01-21T01:04:29.059Z,98937.20
2018-01-21T01:05:34.806Z,98943.23
2018-01-21T01:06:40.572Z,98942.08
2018-01-21T01:07:47.838Z,98939.83
2018-01-21T01:08:53.580Z,98943.29
2018-01-21T01:09:59.336Z,98944.25
2018-01-21T01:11:05.086Z,98944.73
2018-01-21T01:12:10.864Z,98951.63
2018-01-21T01:13:16.588Z,98950.39
2018-01-21T01:14:23.128Z,98954.66
2018-01-21T01:15:29.704Z,98947.33
2018-01-21T01:16:35.651Z,98956.98
2018-01-21T01:17:42.182Z,98955.34
2018-01-21T01:18:48.918Z,98962.27
2018-01-21T01:19:54.666Z,98957.93
2018-01-21T01:21:00.398Z,98963.90
2018-01-21T01:22:06.148Z,98966.44
2018-01-21T01:23:11.904Z,98966.52
2018-01-21T01:24:17.639Z,98966.15
2018-01-21T01:25:23.375Z,98971.27
2018-01-21T01:26:29.173Z,98971.72
2018-01-21T01:27:34.925Z,98975.77
2018-01-21T01:28:40.699Z,98981.59
2018-01-21T01:29:46.450Z,98981.03
2018-01-21T01:30:52.195Z,98987.47
2018-01-21T01:31:57.941Z,98985.70
2018-01-21T01:33:03.664Z,98988.69
2018-01-21T01:34:09.431Z,98990.73
2018-01-21T01:35:15.182Z,98993.27
2018-01-21T01:36:20.935Z,98998.73
2018-01-21T01:37:27.563Z,98998.34
2018-01-21T01:38:32.982Z,99001.66
2018-01-21T01:39:38.735Z,99004.17
2018-01-21T01:40:44.487Z,99004.90
2018-01-21T01:41:50.240Z,99007.34
2018-01-21T01:42:56.025Z,99008.95
2018-01-21T01:44:01.752Z,99012.05
2018-01-21T01:45:07.503Z,99012.84
2018-01-21T01:46:13.240Z,99012.30
2018-01-21T01:47:18.976Z,99015.69
2018-01-21T01:48:24.714Z,99013.46
2018-01-21T01:49:31.232Z,99016.81
2018-01-21T01:50:36.992Z,99019.37
2018-01-21T01:51:42.721Z,99020.22
2018-01-21T01:52:49.218Z,99026.21
2018-01-21T01:53:54.964Z,99029.98
2018-01-21T01:55:00.696Z,99023.06
2018-01-21T01:56:06.451Z,99029.48
2018-01-21T01:57:12.176Z,99030.27
2018-01-21T01:58:17.931Z,99027.28
2018-01-21T01:59:23.677Z,99036.27
2018-01-21T02:00:29.428Z,99031.50
2018-01-21T02:01:35.201Z,99037.64
2018-01-21T02:02:40.986Z,99038.00
2018-01-21T02:03:46.725Z,99038.82
2018-01-21T02:04:53.266Z,99042.28
2018-01-21T02:05:59.013Z,99038.00
2018-01-21T02:07:05.564Z,99040.17
2018-01-21T02:08:11.287Z,99043.75
2018-01-21T02:09:17.043Z,99045.52
2018-01-21T02:10:22.768Z,99042.53
2018-01-21T02:11:28.520Z,99042.11
2018-01-21T02:12:34.295Z,99043.75
2018-01-21T02:13:40.806Z,99045.80
2018-01-21T02:14:46.539Z,99045.47
2018-01-21T02:15:52.278Z,99048.09
2018-01-21T02:16:58.022Z,99047.94
2018-01-21T02:18:03.775Z,99050.42
2018-01-21T02:19:09.519Z,99050.42
2018-01-21T02:20:18.372Z,99050.73
2018-01-21T02:21:24.128Z,99048.56
2018-01-21T02:22:29.890Z,99057.30
2018-01-21T02:23:35.656Z,99054.28
2018-01-21T02:24:42.177Z,99061.94
2018-01-21T02:25:47.895Z,99059.02
2018-01-21T02:26:54.392Z,99061.02
2018-01-21T02:28:00.124Z,99066.95
2018-01-21T02:29:05.885Z,99064.28
2018-01-21T02:30:10.786Z,99067.71
2018-01-21T02:31:16.559Z,99075.48
2018-01-21T02:32:22.292Z,99072.89
2018-01-21T02:33:28.019Z,99072.95
2018-01-21T02:34:33.800Z,99079.05
2018-01-21T02:35:39.541Z,99077.25
2018-01-21T02:36:46.052Z,99079.98
2018-01-21T02:37:51.798Z,99080.41
2018-01-21T02:38:57.582Z,99077.91
2018-01-21T02:40:03.359Z,99078.83
2018-01-21T02:41:09.112Z,99077.95
2018-01-21T02:42:14.864Z,99078.94
2018-01-21T02:43:20.612Z,99079.37
2018-01-21T02:44:26.375Z,99081.92
2018-01-21T02:45:32.156Z,99084.97
2018-01-21T02:46:38.669Z,99076.13
2018-01-21T02:47:44.398Z,99079.59
2018-01-21T02:48:50.144Z,99073.51
2018-01-21T02:49:55.872Z,99078.69
2018-01-21T02:51:01.628Z,99082.01
2018-01-21T02:52:07.429Z,99079.84
2018-01-21T02:53:13.185Z,99085.50
2018-01-21T02:54:19.026Z,99082.57
2018-01-21T02:55:24.779Z,99086.03
2018-01-21T02:56:30.599Z,99086.01
2018-01-21T02:57:36.331Z,99090.17
2018-01-21T02:58:42.816Z,99092.13
2018-01-21T02:59:48.561Z,99097.50
2018-01-21T03:00:54.303Z,99096.09
2018-01-21T03:02:00.072Z,99095.89
2018-01-21T03:03:07.313Z,99096.73
2018-01-21T03:04:13.059Z,99103.41
2018-01-21T03:05:18.784Z,99105.10
2018-01-21T03:06:24.524Z,99110.14
2018-01-21T03:07:30.320Z,99111.78
2018-01-21T03:08:36.853Z,99114.73
2018-01-21T03:09:42.598Z,99117.24
2018-01-21T03:10:48.343Z,99115.89
2018-01-21T03:11:54.103Z,99121.47
2018-01-21T03:12:59.880Z,99120.99
2018-01-21T03:14:06.430Z,99122.29
2018-01-21T03:15:12.916Z,99127.89
2018-01-21T03:16:18.672Z,99130.48
2018-01-21T03:17:24.411Z,99129.98
2018-01-21T03:18:30.203Z,99135.10
2018-01-21T03:19:35.940Z,99138.88
2018-01-21T03:20:41.678Z,99138.17
2018-01-21T03:21:47.426Z,99139.47
2018-01-21T03:22:53.153Z,99137.02
2018-01-21T03:23:58.921Z,99142.63
2018-01-21T03:25:05.421Z,99147.06
2018-01-21T03:26:10.958Z,99150.24
2018-01-21T03:27:16.719Z,99153.45
2018-01-21T03:28:22.446Z,99155.72
2018-01-21T03:29:28.210Z,99158.00
2018-01-21T03:30:33.951Z,99155.13
2018-01-21T03:31:40.465Z,99157.81
2018-01-21T03:32:46.211Z,99162.66
2018-01-21T03:33:51.942Z,99163.39
2018-01-21T03:34:57.786Z,99159.03
2018-01-21T03:36:03.516Z,99159.06
2018-01-21T03:37:10.072Z,99163.77
2018-01-21T03:38:16.607Z,99165.98
2018-01-21T03:39:23.914Z,99169.10
2018-01-21T03:40:30.454Z,99168.31
2018-01-21T03:41:36.953Z,99167.99
2018-01-21T03:42:42.696Z,99171.88
2018-01-21T03:43:48.525Z,99167.14
2018-01-21T03:44:54.261Z,99178.80
2018-01-21T03:46:00.621Z,99175.84
2018-01-21T03:47:07.180Z,99182.39
2018-01-21T03:48:12.926Z,99181.97
2018-01-21T03:49:18.677Z,99190.16
2018-01-21T03:50:24.408Z,99182.84
2018-01-21T03:51:30.166Z,99187.98
2018-01-21T03:52:35.901Z,99190.08
2018-01-21T03:53:41.445Z,99196.55
2018-01-21T03:54:47.185Z,99198.22
2018-01-21T03:55:52.908Z,99200.38
2018-01-21T03:56:58.661Z,99198.64
2018-01-21T03:58:04.186Z,99203.80
2018-01-21T03:59:09.913Z,99207.67
2018-01-21T04:00:15.652Z,99209.34
2018-01-21T04:01:22.174Z,99211.88
2018-01-21T04:02:27.936Z,99213.99
2018-01-21T04:03:34.433Z,99219.15
2018-01-21T04:04:40.157Z,99219.58
2018-01-21T04:05:45.915Z,99221.72
2018-01-21T04:06:51.665Z,99228.61
2018-01-21T04:07:57.428Z,99223.05
2018-01-21T04:09:03.196Z,99227.81
2018-01-21T04:10:08.941Z,99231.70
2018-01-21T04:11:14.691Z,99231.74
2018-01-21T04:12:21.213Z,99236.05
2018-01-21T04:13:27.010Z,99234.31
2018-01-21T04:14:32.810Z,99240.78
2018-01-21T04:15:38.544Z,99246.41
2018-01-21T04:16:44.291Z,99242.10
2018-01-21T04:17:50.050Z,99245.14
2018-01-21T04:18:55.844Z,99247.28
2018-01-21T04:20:01.592Z,99244.35
2018-01-21T04:21:07.320Z,99248.26
2018-01-21T04:22:13.091Z,99251.72
2018-01-21T04:23:18.628Z,99250.88
2018-01-21T04:24:24.388Z,99254.33
2018-01-21T04:25:30.128Z,99254.76
2018-01-21T04:26:35.880Z,99263.38
2018-01-21T04:27:41.605Z,99257.74
2018-01-21T04:28:47.354Z,99266.30
2018-01-21T04:29:53.127Z,99260.23
2018-01-21T04:30:58.874Z,99261.97
2018-01-21T04:32:04.604Z,99267.13
2018-01-21T04:33:11.119Z,99266.28
2018-01-21T04:34:16.539Z,99268.08
2018-01-21T04:35:22.306Z,99270.78
2018-01-21T04:36:29.540Z,99271.73
2018-01-21T04:37:35.284Z,99272.66
2018-01-21T04:38:41.804Z,99281.31
2018-01-21T04:39:48.321Z,99277.94
2018-01-21T04:40:53.775Z,99284.41
2018-01-21T04:42:00.307Z,99279.26
2018-01-21T04:43:06.056Z,99277.96
2018-01-21T04:44:11.788Z,99284.35
2018-01-21T04:45:17.539Z,99281.40
2018-01-21T04:46:22.986Z,99283.61
2018-01-21T04:47:28.758Z,99290.13
2018-01-21T04:48:35.007Z,99287.54
2018-01-21T04:49:41.501Z,99293.59
2018-01-21T04:50:47.244Z,99295.38
2018-01-21T04:51:52.996Z,99298.84
2018-01-21T04:52:58.727Z,99299.31
2018-01-21T04:54:04.473Z,99302.77
2018-01-21T04:55:10.195Z,99306.70
2018-01-21T04:56:15.956Z,99307.59
2018-01-21T04:57:21.718Z,99300.33
2018-01-21T04:58:27.457Z,99305.55
2018-01-21T04:59:33.207Z,99309.02
2018-01-21T05:00:38.950Z,99309.02
2018-01-21T05:01:44.350Z,99308.59
2018-01-21T05:02:50.096Z,99309.86
2018-01-21T05:03:55.828Z,99310.71
2018-01-21T05:05:01.235Z,99313.22
2018-01-21T05:06:07.747Z,99305.83
2018-01-21T05:07:13.477Z,99315.27
2018-01-21T05:08:19.251Z,99319.98
2018-01-21T05:09:24.964Z,99319.03
2018-01-21T05:10:30.715Z,99321.62
2018-01-21T05:11:36.427Z,99322.48
2018-01-21T05:12:42.160Z,99324.61
2018-01-21T05:13:47.943Z,99321.97
2018-01-21T05:14:53.689Z,99324.93
2018-01-21T05:15:59.408Z,99324.58
2018-01-21T05:17:05.147Z,99329.34
2018-01-21T05:18:10.873Z,99325.44
2018-01-21T05:19:16.624Z,99333.05
2018-01-21T05:20:22.361Z,99333.45
2018-01-21T05:21:28.089Z,99339.38
2018-01-21T05:22:33.831Z,99338.95
2018-01-21T05:23:39.560Z,99346.55
2018-01-21T05:24:46.178Z,99347.30
2018-01-21T05:25:51.904Z,99357.16
2018-01-21T05:26:57.620Z,99354.53
2018-01-21T05:28:03.452Z,99361.36
2018-01-21T05:29:09.185Z,99362.13
2018-01-21T05:30:15.700Z,99364.22
2018-01-21T05:31:21.454Z,99369.83
2018-01-21T05:32:27.183Z,99373.63
2018-01-21T05:33:32.944Z,99373.61
2018-01-21T05:34:38.696Z,99377.49
2018-01-21T05:35:45.217Z,99380.55
2018-01-21T05:36:50.950Z,99383.13
2018-01-21T05:37:56.686Z,99380.53
2018-01-21T05:39:02.412Z,99389.59
2018-01-21T05:40:08.169Z,99385.73
2018-01-21T05:41:13.930Z,99385.73
2018-01-21T05:42:19.676Z,99387.11
2018-01-21T05:43:25.401Z,99394.50
2018-01-21T05:44:31.126Z,99398.55
2018-01-21T05:45:36.867Z,99400.31
2018-01-21T05:46:42.632Z,99401.63
2018-01-21T05:47:48.349Z,99400.02
2018-01-21T05:48:54.104Z,99400.48
2018-01-21T05:49:59.859Z,99409.28
2018-01-21T05:51:05.409Z,99404.23
2018-01-21T05:52:11.152Z,99404.30
2018-01-21T05:53:17.642Z,99414.23
2018-01-21T05:54:23.962Z,99414.25
2018-01-21T05:55:29.714Z,99415.64
2018-01-21T05:56:36.624Z,99420.44
2018-01-21T05:57:42.437Z,99422.72
2018-01-21T05:58:48.936Z,99424.95
2018-01-21T05:59:54.682Z,99428.11
2018-01-21T06:01:00.494Z,99431.25
2018-01-21T06:02:06.252Z,99431.82
2018-01-21T06:03:12.059Z,99434.95
2018-01-21T06:04:17.976Z,99435.09
2018-01-21T06:05:23.716Z,99445.09
2018-01-21T06:06:29.444Z,99442.59
2018-01-21T06:07:35.164Z,99453.45
2018-01-21T06:08:40.947Z,99455.64
2018-01-21T06:09:46.682Z,99459.56
2018-01-21T06:10:52.427Z,99460.97
2018-01-21T06:11:58.162Z,99464.48
2018-01-21T06:13:03.881Z,99466.78
2018-01-21T06:14:09.628Z,99464.67
2018-01-21T06:15:15.367Z,99478.55
2018-01-21T06:16:21.097Z,99473.01
2018-01-21T06:17:26.838Z,99476.11
2018-01-21T06:18:32.580Z,99475.73
2018-01-21T06:19:38.152Z,99469.27
2018-01-21T06:20:43.689Z,99478.78
2018-01-21T06:21:50.206Z,99471.94
2018-01-21T06:22:55.932Z,99474.17
2018-01-21T06:24:01.659Z,99476.36
2018-01-21T06:25:07.463Z,99485.48
2018-01-21T06:26:13.191Z,99485.03
2018-01-21T06:27:18.944Z,99483.27
2018-01-21T06:28:24.659Z,99492.32
2018-01-21T06:29:30.409Z,99493.22
2018-01-21T06:30:36.156Z,99494.84
2018-01-21T06:31:41.889Z,99496.97
2018-01-21T06:32:47.617Z,99504.66
2018-01-21T06:33:53.340Z,99501.15
2018-01-21T06:34:59.072Z,99508.45
2018-01-21T06:36:04.842Z,99504.50
2018-01-21T06:37:10.574Z,99504.05
2018-01-21T06:38:16.296Z,99514.38
2018-01-21T06:39:22.816Z,99506.22
2018-01-21T06:40:28.601Z,99513.66
2018-01-21T06:41:35.119Z,99509.44
2018-01-21T06:42:40.845Z,99512.47
2018-01-21T06:43:46.630Z,99510.75
2018-01-21T06:44:53.118Z,99515.06
2018-01-21T06:45:58.868Z,99515.48
2018-01-21T06:47:04.612Z,99521.60
2018-01-21T06:48:10.585Z,99520.72
2018-01-21T06:49:16.331Z,99527.13
2018-01-21T06:50:22.052Z,99525.70
2018-01-21T06:51:27.776Z,99532.53
2018-01-21T06:52:33.754Z,99528.19
2018-01-21T06:53:39.476Z,99532.89
2018-01-21T06:54:45.226Z,99538.05
2018-01-21T06:55:50.964Z,99538.41
2018-01-21T06:56:56.694Z,99539.70
2018-01-21T06:58:02.479Z,99550.44
2018-01-21T06:59:08.237Z,99546.50
2018-01-21T07:00:14.746Z,99555.91
2018-01-21T07:01:20.476Z,99555.04
2018-01-21T07:02:26.194Z,99558.03
2018-01-21T07:03:31.956Z,99560.28
2018-01-21T07:04:37.699Z,99563.67
2018-01-21T07:05:43.431Z,99574.84
2018-01-21T07:06:49.232Z,99576.59
2018-01-21T07:07:55.163Z,99576.55
2018-01-21T07:09:00.948Z,99579.58
2018-01-21T07:10:06.672Z,99580.84
2018-01-21T07:11:13.183Z,99585.14
2018-01-21T07:12:18.910Z,99586.83
2018-01-21T07:13:24.666Z,99590.64
2018-01-21T07:14:30.435Z,99595.30
2018-01-21T07:15:36.215Z,99598.80
2018-01-21T07:16:41.975Z,99596.15
2018-01-21T07:17:47.777Z,99599.98
2018-01-21T07:18:53.520Z,99596.06
2018-01-21T07:20:00.076Z,99605.06
2018-01-21T07:21:06.579Z,99606.42
2018-01-21T07:22:12.474Z,99604.30
2018-01-21T07:23:18.200Z,99605.06
2018-01-21T07:24:23.962Z,99604.16
2018-01-21T07:25:29.712Z,99603.69
2018-01-21T07:26:36.196Z,99610.59
2018-01-21T07:27:41.764Z,99607.16
2018-01-21T07:28:47.534Z,99613.09
2018-01-21T07:29:53.275Z,99619.89
2018-01-21T07:30:59.025Z,99612.84
2018-01-21T07:32:05.647Z,99612.34
2018-01-21T07:33:11.382Z,99616.16
2018-01-21T07:34:17.110Z,99627.26
2018-01-21T07:35:22.850Z,99621.23
2018-01-21T07:36:28.627Z,99626.81
2018-01-21T07:37:34.367Z,99628.92
2018-01-21T07:38:41.604Z,99639.72
2018-01-21T07:39:47.360Z,99637.91
2018-01-21T07:40:53.106Z,99639.93
2018-01-21T07:41:58.889Z,99648.48
2018-01-21T07:43:04.631Z,99649.32
2018-01-21T07:44:10.372Z,99652.25
2018-01-21T07:45:16.862Z,99657.39
2018-01-21T07:46:22.768Z,99656.02
2018-01-21T07:47:28.560Z,99664.27
2018-01-21T07:48:34.290Z,99669.77
2018-01-21T07:49:40.032Z,99667.56
2018-01-21T07:50:45.752Z,99675.80
2018-01-21T07:51:52.266Z,99675.37
2018-01-21T07:52:58.040Z,99679.23
2018-01-21T07:54:04.619Z,99683.09
2018-01-21T07:55:11.367Z,99681.72
2018-01-21T07:56:17.285Z,99686.13
2018-01-21T07:57:23.032Z,99696.00
2018-01-21T07:58:28.803Z,99693.20
2018-01-21T07:59:35.332Z,99697.39
2018-01-21T08:00:41.074Z,99699.92
2018-01-21T08:01:46.842Z,99703.64
2018-01-21T08:02:53.355Z,99706.67
2018-01-21T08:03:59.122Z,99709.59
2018-01-21T08:05:04.852Z,99711.74
2018-01-21T08:06:10.590Z,99709.17
2018-01-21T08:07:16.364Z,99716.03
2018-01-21T08:08:22.341Z,99721.48
2018-01-21T08:09:28.354Z,99717.55
2018-01-21T08:10:34.098Z,99722.17
2018-01-21T08:11:40.600Z,99723.33
2018-01-21T08:12:46.329Z,99718.97
2018-01-21T08:13:52.099Z,99722.73
2018-01-21T08:14:58.787Z,99733.41
2018-01-21T08:16:04.522Z,99727.77
2018-01-21T08:17:10.239Z,99735.00
2018-01-21T08:18:15.963Z,99738.84
2018-01-21T08:19:21.692Z,99736.97
2018-01-21T08:20:27.448Z,99739.47
2018-01-21T08:21:33.603Z,99746.70
2018-01-21T08:22:39.377Z,99748.42
2018-01-21T08:23:45.099Z,99748.67
2018-01-21T08:24:50.831Z,99759.34
2018-01-21T08:25:56.602Z,99763.12
2018-01-21T08:27:03.100Z,99762.65
2018-01-21T08:28:09.661Z,99760.44
2018-01-21T08:29:16.355Z,99772.54
2018-01-21T08:30:22.090Z,99770.34
2018-01-21T08:31:27.863Z,99781.44
2018-01-21T08:32:33.810Z,99773.13
2018-01-21T08:33:39.370Z,99782.17
2018-01-21T08:34:51.282Z,99788.55
2018-01-21T08:37:43.183Z,99799.34
2018-01-21T08:38:54.932Z,99797.89
2018-01-21T08:40:06.087Z,99798.72
2018-01-21T08:42:54.170Z,99801.26
2018-01-21T08:43:59.934Z,99807.65
2018-01-21T08:45:06.449Z,99809.75
2018-01-21T08:46:12.186Z,99817.45
2018-01-21T08:47:17.946Z,99817.42
2018-01-21T08:48:23.701Z,99814.83
2018-01-21T08:49:29.461Z,99822.30
2018-01-21T08:50:35.187Z,99823.06
2018-01-21T08:51:41.511Z,99829.47
2018-01-21T08:52:47.238Z,99830.20
2018-01-21T08:53:53.355Z,99833.34
2018-01-21T08:54:59.101Z,99837.11
2018-01-21T08:56:04.843Z,99832.73
2018-01-21T08:57:10.629Z,99838.30
2018-01-21T08:58:16.415Z,99847.38
2018-01-21T08:59:22.172Z,99843.91
2018-01-21T09:00:27.901Z,99846.95
2018-01-21T09:01:33.645Z,99853.42
2018-01-21T09:02:39.424Z,99854.67
2018-01-21T09:03:45.221Z,99856.36
2018-01-21T09:04:51.079Z,99858.90
2018-01-21T09:05:56.836Z,99862.30
2018-01-21T09:07:02.673Z,99861.41
2018-01-21T09:08:08.460Z,99871.72
2018-01-21T09:09:14.394Z,99872.69
2018-01-21T09:10:20.173Z,99874.52
2018-01-21T09:11:26.757Z,99884.32
2018-01-21T09:12:32.515Z,99884.19
2018-01-21T09:13:38.241Z,99880.61
2018-01-21T09:14:43.970Z,99881.75
2018-01-21T09:15:49.724Z,99886.03
2018-01-21T09:16:55.499Z,99883.41
2018-01-21T09:18:01.021Z,99880.21
2018-01-21T09:19:06.839Z,99885.38
2018-01-21T09:20:12.591Z,99886.58
2018-01-21T09:21:18.471Z,99886.55
2018-01-21T09:22:25.292Z,99889.39
2018-01-21T09:23:31.116Z,99892.41
2018-01-21T09:24:37.657Z,99898.73
2018-01-21T09:25:43.568Z,99897.73
2018-01-21T09:26:49.348Z,99894.08
2018-01-21T09:27:55.886Z,99896.98
2018-01-21T09:29:01.652Z,99892.13
2018-01-21T09:30:08.185Z,99895.48
2018-01-21T09:31:13.936Z,99900.20
2018-01-21T09:32:19.711Z,99901.74
2018-01-21T09:33:25.440Z,99904.22
2018-01-21T09:34:31.958Z,99900.63
2018-01-21T09:35:37.715Z,99905.36
2018-01-21T09:36:44.236Z,99909.95
2018-01-21T09:37:50.030Z,99913.65
2018-01-21T09:38:56.597Z,99917.95
2018-01-21T09:40:02.712Z,99913.50
2018-01-21T09:41:09.560Z,99922.51
2018-01-21T09:42:15.680Z,99922.77
2018-01-21T09:43:22.770Z,99930.06
2018-01-21T09:44:29.059Z,99932.61
2018-01-21T09:45:35.083Z,99933.44
2018-01-21T09:46:41.025Z,99932.14
2018-01-21T09:47:48.551Z,99939.82
2018-01-21T09:48:54.333Z,99939.75
2018-01-21T09:50:00.073Z,99938.43
2018-01-21T09:51:05.810Z,99941.03
2018-01-21T09:52:11.588Z,99943.61
2018-01-21T09:53:18.224Z,99946.27
2018-01-21T09:54:24.011Z,99941.03
2018-01-21T09:55:29.752Z,99947.58
2018-01-21T09:56:35.508Z,99949.11
2018-01-21T09:57:41.308Z,99942.46
2018-01-21T09:58:47.355Z,99940.45
2018-01-21T09:59:53.124Z,99940.08
2018-01-21T10:00:58.855Z,99948.09
2018-01-21T10:02:04.410Z,99941.77
2018-01-21T10:03:12.259Z,99940.60
2018-01-21T10:04:18.117Z,99936.75
2018-01-21T10:05:26.088Z,99939.77
2018-01-21T10:06:32.128Z,99944.72
2018-01-21T10:07:38.768Z,99942.34
2018-01-21T10:08:45.761Z,99944.69
2018-01-21T10:09:51.958Z,99945.14
2018-01-21T10:10:58.459Z,99945.56
2018-01-21T10:12:05.146Z,99945.26
2018-01-21T10:13:11.781Z,99945.91
2018-01-21T10:14:18.677Z,99947.02
2018-01-21T10:15:24.690Z,99947.95
2018-01-21T10:16:30.687Z,99950.34
2018-01-21T10:17:36.842Z,99949.39
2018-01-21T10:18:44.606Z,99954.75
2018-01-21T10:19:50.584Z,99959.98
2018-01-21T10:20:57.909Z,99961.45
2018-01-21T10:22:05.240Z,99961.05
2018-01-21T10:23:16.179Z,99963.41
2018-01-21T10:24:22.019Z,99965.41
2018-01-21T10:25:28.656Z,99965.20
2018-01-21T10:26:36.953Z,99963.61
2018-01-21T10:27:43.847Z,99962.13
2018-01-21T10:28:52.196Z,99962.40
2018-01-21T10:30:01.853Z,99964.13
2018-01-21T10:31:08.836Z,99966.73
2018-01-21T10:32:14.792Z,99975.05
2018-01-21T10:33:20.868Z,99977.23
2018-01-21T10:34:27.146Z,99978.08
2018-01-21T10:35:35.485Z,99976.90
2018-01-21T10:36:41.750Z,99980.59
2018-01-21T10:37:49.546Z,99979.41
2018-01-21T10:38:58.951Z,99982.21
2018-01-21T10:40:06.922Z,99980.58
2018-01-21T10:41:15.743Z,99977.56
2018-01-21T10:42:22.805Z,99978.42
2018-01-21T10:43:30.931Z,99979.27
2018-01-21T10:44:37.728Z,99976.30
2018-01-21T10:45:43.842Z,99980.29
2018-01-21T10:46:50.905Z,99978.68
2018-01-21T10:47:57.781Z,99983.95
2018-01-21T10:49:05.137Z,99985.28
2018-01-21T10:50:13.712Z,99986.95
2018-01-21T10:51:19.772Z,99981.71
2018-01-21T10:52:29.979Z,99983.89
2018-01-21T10:53:36.229Z,99993.53
2018-01-21T10:54:42.991Z,99988.01
2018-01-21T10:55:49.192Z,99985.43
2018-01-21T10:56:55.743Z,99984.75
2018-01-21T10:58:04.544Z,99986.25
2018-01-21T10:59:10.747Z,99991.52
2018-01-21T11:00:18.959Z,99999.38
2018-01-21T11:01:25.446Z,100002.01
2018-01-21T11:02:31.637Z,99998.95
2018-01-21T11:03:39.863Z,100000.65
2018-01-21T11:04:45.984Z,99998.47
2018-01-21T11:06:03.012Z,100001.08
2018-01-21T11:07:11.727Z,100011.67
2018-01-21T11:08:18.208Z,100010.48
2018-01-21T11:09:24.724Z,100014.56
2018-01-21T11:10:30.895Z,100023.37
2018-01-21T11:11:38.011Z,100021.75
2018-01-21T11:12:44.034Z,100019.78
2018-01-21T11:13:51.471Z,100025.16
2018-01-21T11:15:01.799Z,100023.97
2018-01-21T11:16:10.064Z,100030.56
2018-01-21T11:17:16.724Z,100027.53
2018-01-21T11:18:24.071Z,100032.01
2018-01-21T11:19:31.888Z,100039.05
2018-01-21T11:20:38.026Z,100030.38
2018-01-21T11:21:45.629Z,100038.34
2018-01-21T11:22:51.581Z,100045.17
2018-01-21T11:23:57.812Z,100045.67
2018-01-21T11:25:05.927Z,100046.58
2018-01-21T11:26:11.947Z,100052.67
2018-01-21T11:27:18.454Z,100053.44
2018-01-21T11:28:25.497Z,100055.43
2018-01-21T11:29:34.144Z,100059.52
2018-01-21T11:30:42.287Z,100056.64
2018-01-21T11:31:50.727Z,100059.75
2018-01-21T11:32:57.844Z,100068.59
2018-01-21T11:34:07.614Z,100061.55
2018-01-21T11:35:15.406Z,100071.70
2018-01-21T11:36:21.580Z,100069.23
2018-01-21T11:37:29.690Z,100072.17
2018-01-21T11:38:37.162Z,100075.27
2018-01-21T11:39:45.049Z,100078.36
2018-01-21T11:40:51.265Z,100077.11
2018-01-21T11:41:57.122Z,100078.97
2018-01-21T11:43:03.270Z,100085.50
2018-01-21T11:44:10.438Z,100089.39
2018-01-21T11:45:16.562Z,100084.20
2018-01-21T11:46:24.692Z,100093.25
2018-01-21T11:47:30.594Z,100091.89
2018-01-21T11:48:37.466Z,100098.75
2018-01-21T11:49:45.940Z,100099.90
2018-01-21T11:50:53.065Z,100095.94
2018-01-21T11:52:00.411Z,100101.05
2018-01-21T11:53:10.524Z,100110.25
2018-01-21T11:54:19.186Z,100115.15
2018-01-21T11:55:26.890Z,100116.33
2018-01-21T11:56:33.815Z,100115.95
2018-01-21T11:57:40.027Z,100111.17
2018-01-21T11:58:46.794Z,100117.95
2018-01-21T11:59:54.026Z,100119.91
2018-01-21T12:01:05.205Z,100118.83
2018-01-21T12:02:12.197Z,100119.02
2018-01-21T12:03:20.344Z,100117.44
2018-01-21T12:04:27.386Z,100121.41
2018-01-21T12:05:35.104Z,100125.98
2018-01-21T12:06:42.243Z,100128.75
2018-01-21T12:07:48.763Z,100126.84
2018-01-21T12:09:00.728Z,100127.98
2018-01-21T12:10:06.881Z,100127.19
2018-01-21T12:11:12.984Z,100130.27
2018-01-21T12:12:20.122Z,100130.62
2018-01-21T12:13:26.734Z,100136.63
2018-01-21T12:14:32.886Z,100128.09
2018-01-21T12:15:39.032Z,100128.73
2018-01-21T12:16:45.942Z,100133.55
2018-01-21T12:17:52.992Z,100131.66
2018-01-21T12:18:59.534Z,100137.72
2018-01-21T12:20:05.262Z,100141.81
2018-01-21T12:21:11.372Z,100138.11
2018-01-21T12:22:18.207Z,100138.14
2018-01-21T12:23:24.972Z,100144.39
2018-01-21T12:24:33.901Z,100137.39
2018-01-21T12:25:40.906Z,100145.92
2018-01-21T12:26:47.798Z,100142.14
2018-01-21T12:27:53.985Z,100145.27
2018-01-21T12:28:59.922Z,100148.73
2018-01-21T12:30:05.773Z,100152.11
2018-01-21T12:31:13.268Z,100149.84
2018-01-21T12:32:20.261Z,100160.13
2018-01-21T12:33:27.094Z,100162.96
2018-01-21T12:34:35.281Z,100159.19
2018-01-21T12:35:41.466Z,100157.21
2018-01-21T12:36:49.183Z,100166.44
2018-01-21T12:37:55.230Z,100161.90
2018-01-21T12:39:02.216Z,100158.31
2018-01-21T12:40:08.601Z,100168.34
2018-01-21T12:41:15.952Z,100167.46
2018-01-21T12:42:23.918Z,100167.22
2018-01-21T12:43:31.492Z,100170.11
2018-01-21T12:44:38.305Z,100176.14
2018-01-21T12:45:44.389Z,100176.54
2018-01-21T12:46:50.475Z,100171.47
2018-01-21T12:47:57.862Z,100177.28
2018-01-21T12:49:04.080Z,100174.34
2018-01-21T12:50:11.867Z,100174.09
2018-01-21T12:51:19.723Z,100173.45
2018-01-21T12:52:25.858Z,100180.70
2018-01-21T12:53:33.621Z,100177.72
2018-01-21T12:54:39.671Z,100181.90
2018-01-21T12:55:45.817Z,100177.92
2018-01-21T12:56:51.893Z,100176.58
2018-01-21T12:57:58.264Z,100179.66